Time;durP1;ratioP1;P1;durP2;ratioP2;P2;SDS_P1;SDS_P2;PMS_P1;PMS_P2;Temp;Humidity;BMP_temperature;BMP_pressure;BME280_temperature;BME280_humidity;BME280_pressure;Samples;Min_cycle;Max_cycle;Signal;HPM_P1;HPM_P2
2022/03/18 00:01:21;;;;;;;21.20;7.57;;;3.10;81.00;;;;;;5059425;28;20446;-69
2022/03/18 00:03:47;;;;;;;18.23;7.27;;;3.00;80.70;;;;;;5085118;28;20067;-69
2022/03/18 00:06:16;;;;;;;20.77;7.73;;;3.00;81.10;;;;;;5087721;28;20400;-69
2022/03/18 00:08:42;;;;;;;17.75;7.22;;;3.10;81.20;;;;;;5074595;27;20070;-69
2022/03/18 00:11:08;;;;;;;20.95;8.10;;;3.10;81.20;;;;;;5096725;28;20074;-69
2022/03/18 00:13:34;;;;;;;21.58;7.68;;;3.10;81.30;;;;;;5090264;28;20441;-69
2022/03/18 00:16:00;;;;;;;22.97;8.07;;;3.10;81.50;;;;;;5085635;28;20150;-69
2022/03/18 00:18:26;;;;;;;20.80;8.50;;;3.10;81.80;;;;;;5121263;27;20046;-69
2022/03/18 00:20:52;;;;;;;20.27;7.60;;;3.10;81.30;;;;;;5083084;28;20457;-69
2022/03/18 00:23:17;;;;;;;26.10;7.85;;;3.10;81.30;;;;;;5090616;28;20647;-68
2022/03/18 00:25:43;;;;;;;22.43;7.60;;;3.10;81.30;;;;;;5086133;28;20046;-68
2022/03/18 00:28:09;;;;;;;17.57;6.93;;;3.10;81.40;;;;;;5095652;28;20040;-69
2022/03/18 00:30:35;;;;;;;24.50;8.07;;;3.10;81.80;;;;;;5098307;28;20044;-69
2022/03/18 00:33:01;;;;;;;23.47;7.90;;;3.10;81.80;;;;;;5079530;28;20048;-69
2022/03/18 00:35:26;;;;;;;22.17;7.17;;;3.10;81.80;;;;;;5081173;28;20172;-68
2022/03/18 00:37:52;;;;;;;23.40;7.63;;;3.10;81.70;;;;;;5104720;28;20040;-68
2022/03/18 00:40:18;;;;;;;20.83;7.67;;;3.00;82.10;;;;;;5092694;28;20051;-68
2022/03/18 00:42:43;;;;;;;16.67;7.13;;;3.00;82.00;;;;;;5084093;28;20031;-68
2022/03/18 00:45:09;;;;;;;14.10;6.67;;;3.00;82.00;;;;;;5093714;28;20043;-68
2022/03/18 00:53:04;;;;;;;16.85;6.55;;;3.00;82.10;;;;;;5093357;27;20035;-68
2022/03/18 00:55:30;;;;;;;16.20;6.13;;;3.00;82.10;;;;;;5078476;28;20339;-68
2022/03/18 00:57:55;;;;;;;15.83;7.23;;;3.00;82.00;;;;;;5105357;28;20289;-68
2022/03/18 01:00:21;;;;;;;20.77;7.03;;;3.00;82.30;;;;;;5106040;28;20074;-68
2022/03/18 01:02:47;;;;;;;24.17;8.07;;;3.00;82.80;;;;;;5088753;28;20081;-68
2022/03/18 01:05:13;;;;;;;23.43;7.73;;;3.00;82.80;;;;;;5104827;28;20109;-68
2022/03/18 01:07:38;;;;;;;22.53;7.97;;;3.10;83.10;;;;;;5085623;28;20040;-68
2022/03/18 01:10:04;;;;;;;15.87;6.90;;;3.10;83.70;;;;;;5086283;28;20043;-68
2022/03/18 01:12:30;;;;;;;21.38;7.60;;;3.10;83.60;;;;;;5093090;28;20142;-68
2022/03/18 01:14:56;;;;;;;20.20;6.70;;;3.00;83.40;;;;;;5080472;28;20134;-68
2022/03/18 01:17:22;;;;;;;18.30;7.37;;;3.00;83.20;;;;;;5066887;28;20039;-68
2022/03/18 01:19:48;;;;;;;20.38;7.40;;;3.00;83.40;;;;;;5115943;27;20044;-68
2022/03/18 01:22:13;;;;;;;24.67;8.13;;;2.90;83.10;;;;;;5074352;28;20096;-68
2022/03/18 01:24:39;;;;;;;23.63;7.50;;;2.90;83.10;;;;;;5122314;27;20118;-68
2022/03/18 01:27:06;;;;;;;16.73;7.17;;;2.90;83.30;;;;;;5059628;28;20035;-68
2022/03/18 01:29:32;;;;;;;21.48;7.53;;;2.90;83.20;;;;;;5096578;28;20039;-68
2022/03/18 01:31:58;;;;;;;19.33;7.65;;;2.90;83.20;;;;;;5094710;28;20551;-68
2022/03/18 01:34:24;;;;;;;20.50;7.72;;;2.90;83.20;;;;;;5096944;28;20056;-68
2022/03/18 01:36:50;;;;;;;28.23;8.77;;;3.00;83.20;;;;;;5057111;28;20567;-68
2022/03/18 01:39:16;;;;;;;22.17;8.07;;;3.00;83.30;;;;;;5104960;28;20047;-68
2022/03/18 01:41:42;;;;;;;23.27;7.78;;;3.00;83.30;;;;;;5088905;28;20047;-68
2022/03/18 01:44:12;;;;;;;27.67;9.27;;;3.00;83.10;;;;;;5085092;28;20312;-68
2022/03/18 01:46:39;;;;;;;20.95;8.32;;;3.00;83.20;;;;;;5123384;27;20054;-68
2022/03/18 01:49:06;;;;;;;19.15;7.70;;;3.00;83.30;;;;;;5121455;27;20040;-68
2022/03/18 01:51:33;;;;;;;16.80;7.80;;;3.00;83.40;;;;;;5101862;28;20126;-67
2022/03/18 01:56:44;;;;;;;21.58;8.45;;;3.00;83.50;;;;;;5080122;28;20044;-67
2022/03/18 01:59:12;;;;;;;17.85;7.30;;;2.90;83.30;;;;;;5108391;28;20484;-67
2022/03/18 02:01:39;;;;;;;19.60;8.13;;;2.90;83.40;;;;;;5091850;28;20458;-66
2022/03/18 02:04:05;;;;;;;21.70;8.60;;;2.90;83.40;;;;;;5106245;28;20047;-66
2022/03/18 02:06:31;;;;;;;25.67;8.45;;;2.90;83.70;;;;;;5108606;27;20101;-66
2022/03/18 02:08:56;;;;;;;25.00;9.25;;;2.80;83.60;;;;;;5090789;28;20051;-66
2022/03/18 02:11:23;;;;;;;20.53;8.80;;;2.80;83.60;;;;;;5092889;28;20495;-66
2022/03/18 02:13:56;;;;;;;18.92;8.00;;;2.80;83.50;;;;;;5091341;28;20039;-66
2022/03/18 02:16:22;;;;;;;18.08;8.18;;;2.80;83.50;;;;;;5075497;28;20390;-66
2022/03/18 02:18:47;;;;;;;17.33;8.20;;;2.70;83.30;;;;;;5078586;28;20456;-66
2022/03/18 02:21:14;;;;;;;18.60;7.80;;;2.70;83.30;;;;;;5119472;27;21543;-66
2022/03/18 02:23:41;;;;;;;21.13;8.35;;;2.70;83.20;;;;;;5109248;28;20451;-66
2022/03/18 02:26:07;;;;;;;21.13;7.82;;;2.70;83.20;;;;;;5108787;28;20388;-66
2022/03/18 02:28:33;;;;;;;23.47;8.03;;;2.70;83.10;;;;;;5125350;27;20039;-66
2022/03/18 02:30:58;;;;;;;20.17;8.23;;;2.70;83.40;;;;;;5125106;27;20051;-66
2022/03/18 02:33:24;;;;;;;20.97;8.17;;;2.70;83.30;;;;;;5108466;27;20051;-66
2022/03/18 02:35:56;;;;;;;20.57;7.77;;;2.70;83.20;;;;;;5107977;28;20599;-66
2022/03/18 02:38:23;;;;;;;19.30;8.27;;;2.60;83.00;;;;;;5107374;28;20071;-66
2022/03/18 02:40:48;;;;;;;18.88;8.63;;;2.70;83.10;;;;;;5090540;28;20044;-66
2022/03/18 02:43:14;;;;;;;24.30;9.57;;;2.70;83.00;;;;;;5102061;28;20130;-66
2022/03/18 02:45:40;;;;;;;27.67;10.93;;;2.70;83.10;;;;;;5109254;28;20035;-66
2022/03/18 02:48:06;;;;;;;25.63;8.60;;;2.70;83.30;;;;;;5090000;28;20035;-66
2022/03/18 02:50:33;;;;;;;18.20;7.55;;;2.80;83.40;;;;;;5126219;27;20428;-66
2022/03/18 02:52:59;;;;;;;18.85;8.30;;;2.80;83.20;;;;;;5110995;27;20431;-66
2022/03/18 02:55:26;;;;;;;19.60;8.15;;;2.80;83.20;;;;;;5081083;28;20059;-66
2022/03/18 02:57:52;;;;;;;20.13;7.20;;;2.90;83.30;;;;;;5124316;27;20116;-66
2022/03/18 03:00:18;;;;;;;16.43;7.53;;;2.90;83.30;;;;;;5097886;28;20101;-66
2022/03/18 03:02:44;;;;;;;17.98;7.25;;;3.00;83.50;;;;;;5096522;28;20055;-66
2022/03/18 03:07:59;;;;;;;19.98;6.25;;;3.10;83.20;;;;;;5123800;27;20126;-66
2022/03/18 03:10:26;;;;;;;18.67;7.10;;;3.10;83.20;;;;;;5120473;27;20059;-66
2022/03/18 03:12:52;;;;;;;15.88;6.03;;;3.20;83.00;;;;;;5124422;27;20058;-66
2022/03/18 03:15:18;;;;;;;14.50;6.13;;;3.30;83.00;;;;;;5107437;28;20479;-66
2022/03/18 03:17:44;;;;;;;20.10;6.50;;;3.30;82.70;;;;;;5060254;28;20062;-66
2022/03/18 03:20:10;;;;;;;16.40;5.10;;;3.40;82.40;;;;;;5090686;28;20117;-66
2022/03/18 03:22:36;;;;;;;15.13;5.63;;;3.40;82.10;;;;;;5057003;28;20585;-66
2022/03/18 03:25:02;;;;;;;13.83;5.37;;;3.40;81.80;;;;;;5107527;28;20035;-66
2022/03/18 03:27:31;;;;;;;12.87;5.40;;;3.40;81.60;;;;;;5089719;28;20032;-67
2022/03/18 03:30:01;;;;;;;15.05;5.45;;;3.40;81.60;;;;;;5090429;28;20040;-66
2022/03/18 03:32:27;;;;;;;12.43;4.93;;;3.40;81.50;;;;;;5123838;27;20096;-66
2022/03/18 03:34:54;;;;;;;12.47;5.00;;;3.50;81.50;;;;;;5105791;28;20047;-66
2022/03/18 03:37:21;;;;;;;11.75;4.78;;;3.50;81.30;;;;;;5089708;28;20297;-66
2022/03/18 03:39:47;;;;;;;11.57;4.93;;;3.50;81.30;;;;;;5106804;27;20403;-66
2022/03/18 03:42:12;;;;;;;12.03;5.23;;;3.60;81.30;;;;;;5090870;28;20043;-66
2022/03/18 03:44:38;;;;;;;11.33;6.10;;;3.60;81.20;;;;;;5060335;28;20044;-66
2022/03/18 03:47:04;;;;;;;14.23;5.60;;;3.60;81.00;;;;;;5083887;28;20031;-66
2022/03/18 03:49:30;;;;;;;11.77;5.77;;;3.70;80.90;;;;;;5099041;28;20314;-66
2022/03/18 03:51:55;;;;;;;12.83;5.80;;;3.70;80.80;;;;;;5079654;28;20039;-69
2022/03/18 03:54:21;;;;;;;9.90;5.33;;;3.70;80.80;;;;;;5080438;27;20071;-67
2022/03/18 03:56:47;;;;;;;9.23;5.80;;;3.70;80.60;;;;;;5098658;28;20042;-67
2022/03/18 03:59:12;;;;;;;15.47;6.63;;;3.70;80.40;;;;;;5123922;27;20104;-66
2022/03/18 04:01:38;;;;;;;15.27;6.73;;;3.80;80.40;;;;;;5071498;27;20108;-66
2022/03/18 04:04:04;;;;;;;13.07;6.97;;;3.80;80.30;;;;;;5054098;28;20062;-66
2022/03/18 04:06:31;;;;;;;15.00;6.23;;;3.80;80.30;;;;;;5105805;28;20039;-66
2022/03/18 04:08:56;;;;;;;12.77;6.25;;;3.80;80.20;;;;;;5077636;28;20085;-66
2022/03/18 04:11:22;;;;;;;11.87;6.83;;;3.80;80.20;;;;;;5072882;28;20087;-66
2022/03/18 04:13:48;;;;;;;10.33;6.60;;;3.70;80.20;;;;;;5106607;28;20047;-67
2022/03/18 04:16:15;;;;;;;11.50;6.95;;;3.70;80.10;;;;;;5080592;28;20122;-66
2022/03/18 04:18:41;;;;;;;12.85;6.50;;;3.70;80.00;;;;;;5066095;28;20149;-66
2022/03/18 04:21:07;;;;;;;14.30;7.10;;;3.60;80.10;;;;;;5086890;28;20044;-67
2022/03/18 04:23:33;;;;;;;16.83;7.27;;;3.60;80.10;;;;;;5123681;27;20065;-67
2022/03/18 04:25:58;;;;;;;12.87;6.77;;;3.50;79.90;;;;;;5123239;27;20131;-67
2022/03/18 04:28:24;;;;;;;12.20;7.17;;;3.50;80.00;;;;;;5121642;27;20373;-66
2022/03/18 04:30:50;;;;;;;14.37;7.37;;;3.40;80.00;;;;;;5105996;28;20057;-67
2022/03/18 04:33:15;;;;;;;14.00;7.17;;;3.30;79.90;;;;;;5090645;28;20399;-66
2022/03/18 04:35:41;;;;;;;14.13;7.40;;;3.20;79.90;;;;;;5122745;27;20103;-66
2022/03/18 04:38:07;;;;;;;13.50;7.70;;;3.20;79.90;;;;;;5122630;27;20051;-66
2022/03/18 04:40:33;;;;;;;13.95;7.95;;;3.10;79.90;;;;;;5122606;27;20097;-66
2022/03/18 04:42:58;;;;;;;19.97;8.43;;;3.00;79.90;;;;;;5071990;28;20091;-66
2022/03/18 04:45:24;;;;;;;14.40;8.10;;;2.90;79.90;;;;;;5089895;28;20036;-66
2022/03/18 04:47:50;;;;;;;13.82;8.40;;;2.80;80.00;;;;;;5090283;28;20184;-66
2022/03/18 04:50:16;;;;;;;18.53;8.20;;;2.80;80.10;;;;;;5101793;28;20119;-66
2022/03/18 04:52:42;;;;;;;16.90;9.17;;;2.70;80.10;;;;;;5073119;27;20039;-66
2022/03/18 04:55:08;;;;;;;14.97;8.40;;;2.70;80.20;;;;;;5093847;28;20047;-66
2022/03/18 04:57:34;;;;;;;14.40;7.78;;;2.60;80.30;;;;;;5123013;27;20440;-66
2022/03/18 04:59:59;;;;;;;16.60;9.00;;;2.50;80.20;;;;;;5123125;27;20135;-66
2022/03/18 05:02:26;;;;;;;16.53;8.93;;;2.50;80.30;;;;;;5074014;28;20043;-66
2022/03/18 05:04:53;;;;;;;12.02;8.77;;;2.40;80.20;;;;;;5068655;28;20039;-66
2022/03/18 05:07:19;;;;;;;14.40;8.80;;;2.30;80.30;;;;;;5122546;27;20031;-66
2022/03/18 05:09:46;;;;;;;14.20;8.23;;;2.20;80.30;;;;;;5079701;28;20096;-66
2022/03/18 05:12:14;;;;;;;16.35;8.88;;;2.20;80.40;;;;;;5103146;28;20074;-68
2022/03/18 05:14:40;;;;;;;14.05;8.88;;;2.10;80.40;;;;;;5115881;27;20429;-69
2022/03/18 05:17:08;;;;;;;13.77;8.80;;;2.10;80.60;;;;;;5091467;27;20039;-69
2022/03/18 05:19:34;;;;;;;17.73;9.15;;;2.10;80.60;;;;;;5123797;27;20513;-69
2022/03/18 05:22:01;;;;;;;15.48;9.43;;;2.00;80.40;;;;;;5072967;28;20563;-69
2022/03/18 05:24:26;;;;;;;16.25;9.52;;;1.90;80.50;;;;;;5105794;28;20047;-69
2022/03/18 05:26:56;;;;;;;13.13;9.50;;;1.90;80.40;;;;;;5104804;28;20039;-69
2022/03/18 05:29:25;;;;;;;13.57;9.60;;;1.80;80.60;;;;;;5096258;28;20092;-69
2022/03/18 05:31:51;;;;;;;15.85;10.15;;;1.80;80.70;;;;;;5099756;28;20050;-69
2022/03/18 05:34:16;;;;;;;14.30;9.90;;;1.80;80.70;;;;;;5105558;27;20039;-69
2022/03/18 05:36:43;;;;;;;13.23;9.33;;;1.70;80.70;;;;;;5095178;28;20043;-69
2022/03/18 05:39:10;;;;;;;15.15;10.10;;;1.70;80.70;;;;;;5077985;28;20039;-69
2022/03/18 05:41:37;;;;;;;13.40;9.55;;;1.60;80.80;;;;;;5126999;27;20069;-69
2022/03/18 05:44:02;;;;;;;16.45;10.80;;;1.60;80.80;;;;;;5052955;28;20058;-69
2022/03/18 05:46:28;;;;;;;16.63;11.63;;;1.50;80.90;;;;;;5110951;27;20039;-69
2022/03/18 05:48:54;;;;;;;16.07;11.43;;;1.50;81.00;;;;;;5082097;28;20292;-69
2022/03/18 05:51:20;;;;;;;14.27;10.27;;;1.50;81.00;;;;;;5111484;27;20043;-69
2022/03/18 05:53:46;;;;;;;15.30;10.75;;;1.50;81.40;;;;;;5113463;27;20051;-69
2022/03/18 05:58:56;;;;;;;16.85;11.25;;;1.40;81.60;;;;;;5126359;27;20495;-69
2022/03/18 06:01:22;;;;;;;14.97;11.03;;;1.40;81.50;;;;;;5092375;28;20073;-66
2022/03/18 06:03:50;;;;;;;17.03;12.27;;;1.40;81.60;;;;;;5075327;28;20488;-66
2022/03/18 06:06:16;;;;;;;19.33;11.50;;;1.40;81.70;;;;;;5086717;28;20075;-66
2022/03/18 06:14:11;;;;;;;14.90;11.63;;;1.50;81.80;;;;;;5095692;27;20653;-66
2022/03/18 06:16:37;;;;;;;19.17;12.60;;;1.50;81.80;;;;;;5108360;28;20067;-66
2022/03/18 06:19:03;;;;;;;14.57;11.38;;;1.50;81.80;;;;;;5087634;28;20032;-66
2022/03/18 06:21:29;;;;;;;17.58;11.77;;;1.60;81.90;;;;;;5078624;27;20098;-68
2022/03/18 06:23:55;;;;;;;18.80;12.67;;;1.60;81.90;;;;;;5089047;28;20071;-68
2022/03/18 06:26:22;;;;;;;22.33;13.60;;;1.60;81.80;;;;;;5079448;28;20054;-68
2022/03/18 06:28:48;;;;;;;15.77;11.95;;;1.70;81.90;;;;;;5078855;28;20082;-68
2022/03/18 06:31:13;;;;;;;19.55;13.32;;;1.70;81.90;;;;;;5107880;27;20043;-68
2022/03/18 06:33:43;;;;;;;23.10;15.10;;;1.80;82.10;;;;;;5091861;28;20047;-68
2022/03/18 06:36:10;;;;;;;21.95;14.20;;;1.80;82.10;;;;;;5102567;27;20039;-68
2022/03/18 06:38:36;;;;;;;20.75;14.50;;;1.90;82.20;;;;;;5108657;28;20478;-68
2022/03/18 06:41:01;;;;;;;21.37;14.70;;;2.00;82.30;;;;;;5073574;28;20075;-69
2022/03/18 06:43:27;;;;;;;24.03;15.73;;;2.10;82.30;;;;;;5108188;28;20032;-67
2022/03/18 06:45:52;;;;;;;23.17;15.70;;;2.20;82.30;;;;;;5080393;28;20043;-66
2022/03/18 06:48:18;;;;;;;22.53;15.80;;;2.30;82.30;;;;;;5079088;28;20054;-66
2022/03/18 06:50:44;;;;;;;23.10;16.37;;;2.30;82.40;;;;;;5065323;28;20055;-66
2022/03/18 06:53:09;;;;;;;23.93;16.37;;;2.40;82.40;;;;;;5065275;27;20043;-66
2022/03/18 06:55:35;;;;;;;20.13;14.10;;;2.50;82.30;;;;;;5079221;28;20047;-66
2022/03/18 06:58:01;;;;;;;25.50;17.03;;;2.60;82.50;;;;;;5082931;28;20054;-66
2022/03/18 07:00:27;;;;;;;18.88;15.95;;;2.70;82.60;;;;;;5079096;28;20039;-66
2022/03/18 07:02:53;;;;;;;18.77;15.53;;;2.80;82.60;;;;;;5074987;28;20694;-66
2022/03/18 07:05:19;;;;;;;25.05;15.30;;;3.00;82.70;;;;;;5089372;28;20031;-66
2022/03/18 07:07:45;;;;;;;35.60;15.75;;;3.10;82.70;;;;;;5096402;27;20039;-66
2022/03/18 07:10:12;;;;;;;31.05;16.92;;;3.20;82.70;;;;;;5096653;28;20092;-66
2022/03/18 07:12:39;;;;;;;25.13;15.45;;;3.30;82.80;;;;;;5086083;28;20416;-66
2022/03/18 07:15:06;;;;;;;25.42;16.65;;;3.40;82.70;;;;;;5125508;27;20491;-66
2022/03/18 07:20:17;;;;;;;26.67;16.75;;;3.70;83.10;;;;;;5097877;28;20051;-66
2022/03/18 07:22:43;;;;;;;29.77;17.33;;;3.80;83.00;;;;;;5100388;28;20044;-66
2022/03/18 07:25:09;;;;;;;23.43;16.70;;;4.00;83.20;;;;;;5071954;27;20786;-66
2022/03/18 07:27:35;;;;;;;26.48;15.18;;;4.10;82.90;;;;;;5077503;28;20157;-66
2022/03/18 07:30:02;;;;;;;28.97;16.47;;;4.20;83.00;;;;;;5094067;28;20126;-67
2022/03/18 07:32:28;;;;;;;27.10;15.90;;;4.40;83.10;;;;;;5101386;28;20051;-67
2022/03/18 07:34:54;;;;;;;22.90;15.23;;;4.50;83.00;;;;;;5092662;28;20050;-67
2022/03/18 07:37:20;;;;;;;24.47;15.10;;;4.60;82.90;;;;;;5061953;28;20040;-67
2022/03/18 07:39:45;;;;;;;25.53;14.03;;;4.70;82.70;;;;;;5088123;28;20044;-67
2022/03/18 07:42:11;;;;;;;22.63;15.77;;;4.80;82.70;;;;;;5100959;27;20044;-67
2022/03/18 07:44:37;;;;;;;22.25;14.77;;;4.90;82.70;;;;;;5089035;28;20044;-67
2022/03/18 07:47:03;;;;;;;22.57;14.20;;;5.00;82.60;;;;;;5096406;28;20101;-67
2022/03/18 07:49:29;;;;;;;23.00;14.82;;;5.10;82.50;;;;;;5094286;28;20107;-67
2022/03/18 07:51:55;;;;;;;24.53;15.70;;;5.30;82.60;;;;;;5083017;28;20047;-67
2022/03/18 07:54:21;;;;;;;25.65;14.63;;;5.40;82.60;;;;;;5123185;27;20412;-68
2022/03/18 07:56:47;;;;;;;25.60;14.47;;;5.50;82.60;;;;;;5072561;28;20031;-68
2022/03/18 07:59:12;;;;;;;33.57;14.77;;;5.70;82.60;;;;;;5091064;28;20392;-67
2022/03/18 08:01:39;;;;;;;24.20;13.10;;;5.80;82.60;;;;;;5105681;27;20040;-67
2022/03/18 08:04:06;;;;;;;28.15;13.15;;;6.00;82.80;;;;;;5070480;28;20134;-67
2022/03/18 08:06:33;;;;;;;24.02;12.68;;;6.20;82.60;;;;;;5086006;28;20035;-67
2022/03/18 08:08:58;;;;;;;28.27;11.90;;;6.50;82.50;;;;;;5084464;28;20062;-68
2022/03/18 08:11:24;;;;;;;21.83;11.90;;;6.70;82.30;;;;;;5068001;28;20055;-68
2022/03/18 08:13:50;;;;;;;23.37;11.33;;;6.80;81.80;;;;;;5068981;28;20051;-68
2022/03/18 08:16:16;;;;;;;30.13;12.30;;;7.00;81.90;;;;;;5069677;28;20055;-68
2022/03/18 08:18:42;;;;;;;27.90;12.27;;;7.10;82.00;;;;;;5086989;28;20036;-68
2022/03/18 08:21:26;;;;;;;26.60;10.73;;;7.30;81.80;;;;;;5085560;28;20163;-68
2022/03/18 08:23:52;;;;;;;26.83;10.73;;;7.40;81.50;;;;;;5120311;27;20733;-68
2022/03/18 08:26:18;;;;;;;23.10;9.63;;;7.60;81.60;;;;;;5088847;28;20047;-68
2022/03/18 08:28:43;;;;;;;22.10;10.90;;;7.70;81.20;;;;;;5084673;28;20028;-68
2022/03/18 08:31:09;;;;;;;26.40;10.97;;;7.80;81.00;;;;;;5087628;28;20104;-68
2022/03/18 08:33:35;;;;;;;22.90;9.53;;;8.00;80.70;;;;;;5072609;28;20074;-68
2022/03/18 08:36:01;;;;;;;22.77;10.20;;;8.20;80.60;;;;;;5085488;28;20193;-68
2022/03/18 08:38:27;;;;;;;20.57;9.37;;;8.30;80.00;;;;;;5069837;28;20046;-68
2022/03/18 08:40:52;;;;;;;23.33;9.80;;;8.40;79.60;;;;;;5086168;28;20043;-69
2022/03/18 08:43:18;;;;;;;24.30;9.40;;;8.50;79.60;;;;;;5068903;28;20039;-69
2022/03/18 08:45:45;;;;;;;19.53;8.83;;;8.60;79.40;;;;;;5051888;28;20447;-68
2022/03/18 08:48:10;;;;;;;22.15;9.90;;;8.70;79.20;;;;;;5086056;28;20043;-69
2022/03/18 08:50:36;;;;;;;25.63;10.57;;;8.80;79.10;;;;;;5085993;28;20078;-69
2022/03/18 08:53:09;;;;;;;23.77;10.07;;;8.90;79.00;;;;;;5119301;27;20612;-69
2022/03/18 08:55:35;;;;;;;21.63;10.50;;;9.00;78.60;;;;;;5119330;27;20446;-69
2022/03/18 08:58:01;;;;;;;27.00;10.98;;;9.10;78.50;;;;;;5086575;27;20386;-69
2022/03/18 09:00:29;;;;;;;21.37;8.40;;;9.20;78.50;;;;;;5088717;28;20035;-69
2022/03/18 09:02:54;;;;;;;24.25;7.13;;;9.40;78.30;;;;;;5089834;28;20067;-69
2022/03/18 09:05:20;;;;;;;19.30;6.03;;;9.50;78.00;;;;;;5068831;28;20731;-69
2022/03/18 09:07:46;;;;;;;16.77;6.67;;;9.60;77.70;;;;;;5063430;28;20455;-69
2022/03/18 09:10:12;;;;;;;19.97;7.07;;;9.80;77.60;;;;;;5084347;28;20048;-69
2022/03/18 09:12:49;;;;;;;21.08;6.70;;;9.90;77.40;;;;;;5080190;28;20044;-69
2022/03/18 09:15:16;;;;;;;17.70;6.35;;;10.10;77.00;;;;;;5114830;27;20059;-69
2022/03/18 09:17:42;;;;;;;25.30;7.00;;;10.20;76.60;;;;;;5049615;28;20039;-69
2022/03/18 09:20:08;;;;;;;15.77;6.87;;;10.20;76.20;;;;;;5065014;28;20043;-69
2022/03/18 09:22:34;;;;;;;20.45;6.95;;;10.30;75.70;;;;;;5110398;27;20043;-69
2022/03/18 09:24:59;;;;;;;22.20;7.03;;;10.40;75.60;;;;;;5084575;28;20043;-69
2022/03/18 09:27:25;;;;;;;19.73;6.70;;;10.50;75.60;;;;;;5096159;28;20040;-69
2022/03/18 09:29:51;;;;;;;20.30;7.20;;;10.60;75.50;;;;;;5102134;28;20036;-69
2022/03/18 09:32:16;;;;;;;24.87;7.77;;;10.70;75.40;;;;;;5053474;28;20496;-70
2022/03/18 09:34:42;;;;;;;16.73;6.93;;;10.80;75.60;;;;;;5052906;28;20523;-70
2022/03/18 09:37:08;;;;;;;18.47;6.87;;;10.90;75.40;;;;;;5118292;27;20039;-70
2022/03/18 09:39:34;;;;;;;15.30;6.87;;;11.00;75.20;;;;;;5121143;27;20399;-70
2022/03/18 09:42:00;;;;;;;21.30;6.50;;;11.10;75.00;;;;;;5103122;28;20043;-70
2022/03/18 09:44:34;;;;;;;20.33;6.93;;;11.20;74.30;;;;;;5087484;28;20154;-70
2022/03/18 09:47:01;;;;;;;21.60;6.63;;;11.30;74.10;;;;;;5082323;28;20039;-70
2022/03/18 09:49:28;;;;;;;21.90;6.20;;;11.40;74.10;;;;;;5094152;28;20043;-70
2022/03/18 09:51:54;;;;;;;18.23;6.32;;;11.50;73.30;;;;;;5106689;28;20088;-70
2022/03/18 09:54:20;;;;;;;19.30;6.20;;;11.60;73.00;;;;;;5089209;28;20043;-70
2022/03/18 09:56:47;;;;;;;21.07;6.43;;;11.70;72.80;;;;;;5104123;28;20289;-70
2022/03/18 09:59:14;;;;;;;21.30;6.30;;;11.70;72.90;;;;;;5073408;28;20828;-70
2022/03/18 10:01:40;;;;;;;23.63;5.90;;;11.80;72.70;;;;;;5083954;28;20473;-70
2022/03/18 10:04:08;;;;;;;18.37;5.60;;;11.90;72.00;;;;;;5102228;28;20035;-70
2022/03/18 10:06:34;;;;;;;17.43;5.97;;;11.90;71.90;;;;;;5068457;28;20702;-70
2022/03/18 10:09:01;;;;;;;19.57;6.50;;;12.00;71.70;;;;;;5118464;27;20836;-70
2022/03/18 10:11:30;;;;;;;18.43;6.07;;;12.10;71.40;;;;;;5100225;28;20792;-70
2022/03/18 10:14:02;;;;;;;18.43;6.33;;;12.20;71.80;;;;;;5116867;27;20292;-70
2022/03/18 10:16:33;;;;;;;17.23;6.17;;;12.30;71.60;;;;;;5085046;28;20340;-70
2022/03/18 10:19:00;;;;;;;18.90;6.87;;;12.40;71.50;;;;;;5100360;28;20286;-70
2022/03/18 10:21:28;;;;;;;19.17;6.13;;;12.40;71.40;;;;;;5104577;27;20333;-70
2022/03/18 10:24:09;;;;;;;15.10;6.00;;;12.60;71.20;;;;;;5072300;28;20292;-70
2022/03/18 10:26:39;;;;;;;17.20;6.20;;;12.70;70.70;;;;;;5071566;28;20277;-70
2022/03/18 10:29:05;;;;;;;21.60;6.40;;;12.80;70.80;;;;;;5089141;28;20300;-70
2022/03/18 10:31:32;;;;;;;20.27;6.20;;;12.90;69.80;;;;;;5085653;28;20297;-70
2022/03/18 10:37:12;;;;;;;20.20;5.73;;;13.00;69.70;;;;;;5083054;27;20422;-71
2022/03/18 10:39:41;;;;;;;18.33;5.70;;;13.00;69.40;;;;;;5114244;27;20309;-70
2022/03/18 10:42:23;;;;;;;15.67;6.23;;;13.10;68.70;;;;;;5102546;27;20335;-70
2022/03/18 10:44:54;;;;;;;15.63;5.90;;;13.20;68.70;;;;;;5105642;28;20278;-71
2022/03/18 10:47:35;;;;;;;15.67;5.77;;;13.20;68.90;;;;;;5063664;28;20418;-71
2022/03/18 10:50:10;;;;;;;18.47;6.37;;;13.40;67.90;;;;;;5094186;28;20376;-70
2022/03/18 10:52:37;;;;;;;16.13;5.57;;;13.40;67.70;;;;;;5125655;27;20777;-70
2022/03/18 10:55:23;;;;;;;15.60;5.63;;;13.50;67.60;;;;;;5074846;28;20043;-70
2022/03/18 10:57:54;;;;;;;13.17;4.80;;;13.60;67.40;;;;;;5092869;28;20353;-71
2022/03/18 11:00:22;;;;;;;15.47;4.90;;;13.70;66.90;;;;;;5083612;28;20633;-71
2022/03/18 11:02:49;;;;;;;18.03;5.40;;;13.70;66.40;;;;;;5120772;27;20312;-70
2022/03/18 11:05:20;;;;;;;17.60;5.57;;;13.80;66.40;;;;;;5085979;28;20300;-70
2022/03/18 11:07:47;;;;;;;15.57;5.77;;;13.90;66.20;;;;;;5103336;27;20289;-70
2022/03/18 11:13:03;;;;;;;20.80;5.10;;;14.00;65.40;;;;;;5098052;27;20413;-70
2022/03/18 11:15:31;;;;;;;14.93;4.70;;;14.00;65.40;;;;;;5085650;28;20523;-71
2022/03/18 11:17:58;;;;;;;16.20;3.87;;;14.10;65.50;;;;;;5091640;28;20285;-71
2022/03/18 11:20:29;;;;;;;13.70;4.57;;;14.20;65.30;;;;;;5080276;28;20611;-71
2022/03/18 11:22:55;;;;;;;16.97;4.30;;;14.30;64.80;;;;;;5122180;27;20397;-71
2022/03/18 11:25:22;;;;;;;17.53;4.70;;;14.30;64.20;;;;;;5072356;28;20361;-70
2022/03/18 11:27:48;;;;;;;15.07;4.40;;;14.30;64.00;;;;;;5089159;28;20485;-70
2022/03/18 11:30:19;;;;;;;13.27;3.93;;;14.40;63.50;;;;;;5106256;28;20281;-69
2022/03/18 11:33:10;;;;;;;15.73;4.60;;;14.40;62.80;;;;;;5081404;28;20818;-69
2022/03/18 11:35:51;;;;;;;17.20;4.30;;;14.60;62.30;;;;;;5104912;28;20832;-70
2022/03/18 11:38:23;;;;;;;14.40;3.93;;;14.60;62.70;;;;;;5122360;27;20302;-70
2022/03/18 11:41:01;;;;;;;12.50;4.23;;;14.70;62.30;;;;;;5072080;28;20360;-70
2022/03/18 11:43:30;;;;;;;19.50;4.13;;;14.80;61.40;;;;;;5087390;28;20676;-70
2022/03/18 11:46:14;;;;;;;10.43;3.37;;;14.90;61.70;;;;;;5105768;28;20300;-70
2022/03/18 11:48:53;;;;;;;13.60;3.07;;;15.00;60.40;;;;;;5107703;27;20308;-70
2022/03/18 11:51:25;;;;;;;15.23;3.93;;;15.00;59.90;;;;;;5051338;27;21653;-70
2022/03/18 11:53:54;;;;;;;13.03;3.73;;;15.10;59.60;;;;;;5089617;28;20285;-70
2022/03/18 11:56:38;;;;;;;13.30;3.70;;;15.10;60.60;;;;;;5120820;27;20284;-71
2022/03/18 11:59:24;;;;;;;12.90;3.33;;;15.20;60.20;;;;;;5105047;27;20814;-71
2022/03/18 12:01:56;;;;;;;9.97;3.37;;;15.30;60.60;;;;;;5119657;27;20301;-70
2022/03/18 12:04:34;;;;;;;12.30;3.97;;;15.30;60.20;;;;;;5067191;27;20784;-70
2022/03/18 12:07:24;;;;;;;17.53;3.73;;;15.40;60.20;;;;;;5118177;27;20286;-70
2022/03/18 12:10:18;;;;;;;13.43;3.53;;;15.50;60.00;;;;;;5077987;28;20285;-71
2022/03/18 12:12:50;;;;;;;12.20;3.30;;;15.60;59.00;;;;;;5067099;28;20309;-71
2022/03/18 12:15:22;;;;;;;11.13;3.00;;;15.70;59.20;;;;;;5117260;27;20460;-70
2022/03/18 12:17:53;;;;;;;12.77;3.23;;;15.80;59.30;;;;;;5068612;28;20297;-71
2022/03/18 12:20:24;;;;;;;11.23;2.63;;;15.90;57.20;;;;;;5071321;28;20305;-70
2022/03/18 12:22:52;;;;;;;12.77;3.17;;;15.80;56.80;;;;;;5083659;28;20309;-70
2022/03/18 12:25:20;;;;;;;16.70;3.53;;;15.70;56.90;;;;;;5079363;28;20289;-70
2022/03/18 12:27:46;;;;;;;13.03;2.80;;;15.60;57.30;;;;;;5081343;27;20785;-70
2022/03/18 12:30:14;;;;;;;12.40;3.07;;;15.60;56.70;;;;;;5063640;27;20325;-70
2022/03/18 12:32:48;;;;;;;13.17;3.30;;;15.60;57.00;;;;;;5090745;28;20297;-70
2022/03/18 12:35:18;;;;;;;15.48;3.47;;;15.60;57.90;;;;;;5087486;28;20695;-70
2022/03/18 12:37:46;;;;;;;10.90;3.37;;;15.70;57.90;;;;;;5120428;27;20040;-70
2022/03/18 12:40:14;;;;;;;15.30;3.07;;;15.80;57.80;;;;;;5078296;28;20685;-70
2022/03/18 12:42:58;;;;;;;13.43;3.67;;;15.90;58.00;;;;;;5068664;28;20309;-70
2022/03/18 12:45:45;;;;;;;21.37;3.53;;;16.00;56.10;;;;;;5071586;28;20282;-70
2022/03/18 12:48:16;;;;;;;19.60;4.00;;;16.00;56.90;;;;;;5071502;28;20280;-70
2022/03/18 12:50:49;;;;;;;13.63;3.17;;;16.10;57.10;;;;;;5070521;28;20365;-70
2022/03/18 12:53:20;;;;;;;10.43;2.67;;;16.20;56.60;;;;;;5117062;27;20363;-70
2022/03/18 12:55:54;;;;;;;11.50;2.90;;;16.30;56.30;;;;;;5120460;27;20645;-70
2022/03/18 12:58:23;;;;;;;14.48;2.78;;;16.30;55.50;;;;;;5087641;28;20346;-71
2022/03/18 13:00:55;;;;;;;12.60;2.70;;;16.30;55.70;;;;;;5069084;28;20046;-71
2022/03/18 13:03:29;;;;;;;10.80;2.87;;;16.30;55.60;;;;;;5113613;27;20294;-71
2022/03/18 13:06:08;;;;;;;13.00;2.73;;;16.30;55.40;;;;;;5073128;28;20384;-70
2022/03/18 13:08:34;;;;;;;13.00;2.70;;;16.30;55.30;;;;;;5099633;28;20316;-70
2022/03/18 13:11:02;;;;;;;11.80;2.57;;;16.40;55.60;;;;;;5077363;28;20297;-70